MCAS Cherry Point, North Carolina
Current Conditions -  °F | °C
As of 8:54 PM on Tuesday 21 Oct 2014 (Local Time) from KNKT Reporting Station
Scattered Clouds Scattered Clouds  
Wind Chill: 63°   Ceiling: Unl
Heat Index: 63°   Visibility: 10mi
Dew Point: 59°   Wind: 3mph
Humidity: 87%   Direction: 230°SW
Pressure: 29.88"   Gusts: NA
Location:  34.8973°N, 76.9091°W
Report Text: KNKT 220054Z 23003KT 10SM SCT065 17/15 A2988 RMK AO2 SLP114 T01720150 $
Loading
Personal Weather Stations






























Interactive Weather Map
Tropical Storm Tracking
New forecast layout! Learn more

10-Day Weather Forecast

Advertisements
Track Severe Weather on mobile